sensor_id;sensor_type;location;lat;lon;timestamp;temperature;humidity
67182;DHT22;54114;53.524;49.396;2023-04-01T00:00:48;7.10;66.20
67182;DHT22;54114;53.524;49.396;2023-04-01T00:03:15;7.00;66.40
67182;DHT22;54114;53.524;49.396;2023-04-01T00:05:42;7.00;66.60
67182;DHT22;54114;53.524;49.396;2023-04-01T00:08:09;7.00;66.80
67182;DHT22;54114;53.524;49.396;2023-04-01T00:10:36;7.00;67.00
67182;DHT22;54114;53.524;49.396;2023-04-01T00:13:08;7.00;67.00
67182;DHT22;54114;53.524;49.396;2023-04-01T00:15:35;6.90;67.10
67182;DHT22;54114;53.524;49.396;2023-04-01T00:18:04;6.90;67.30
67182;DHT22;54114;53.524;49.396;2023-04-01T00:20:36;6.90;67.40
67182;DHT22;54114;53.524;49.396;2023-04-01T00:23:08;6.90;67.50
67182;DHT22;54114;53.524;49.396;2023-04-01T00:25:37;6.90;67.60
67182;DHT22;54114;53.524;49.396;2023-04-01T00:28:06;6.90;67.70
67182;DHT22;54114;53.524;49.396;2023-04-01T00:30:36;6.80;67.80
67182;DHT22;54114;53.524;49.396;2023-04-01T00:33:03;6.80;67.90
67182;DHT22;54114;53.524;49.396;2023-04-01T00:35:35;6.80;68.00
67182;DHT22;54114;53.524;49.396;2023-04-01T00:38:01;6.80;68.20
67182;DHT22;54114;53.524;49.396;2023-04-01T00:43:02;6.70;68.40
67182;DHT22;54114;53.524;49.396;2023-04-01T00:45:36;6.70;68.40
67182;DHT22;54114;53.524;49.396;2023-04-01T00:51:11;6.70;68.70
67182;DHT22;54114;53.524;49.396;2023-04-01T00:53:44;6.70;69.00
67182;DHT22;54114;53.524;49.396;2023-04-01T00:58:51;6.60;69.40
67182;DHT22;54114;53.524;49.396;2023-04-01T01:01:30;6.60;69.10
67182;DHT22;54114;53.524;49.396;2023-04-01T01:03:57;6.60;69.10
67182;DHT22;54114;53.524;49.396;2023-04-01T01:06:26;6.60;69.20
67182;DHT22;54114;53.524;49.396;2023-04-01T01:09:35;6.60;69.40
67182;DHT22;54114;53.524;49.396;2023-04-01T01:12:19;6.50;69.20
67182;DHT22;54114;53.524;49.396;2023-04-01T01:15:12;6.50;69.20
67182;DHT22;54114;53.524;49.396;2023-04-01T01:18:19;6.50;69.50
67182;DHT22;54114;53.524;49.396;2023-04-01T01:23:54;6.40;69.60
67182;DHT22;54114;53.524;49.396;2023-04-01T01:32:49;6.40;69.90
67182;DHT22;54114;53.524;49.396;2023-04-01T01:35:50;6.40;69.90
67182;DHT22;54114;53.524;49.396;2023-04-01T01:38:27;6.40;69.60
67182;DHT22;54114;53.524;49.396;2023-04-01T01:40:59;6.40;69.40
67182;DHT22;54114;53.524;49.396;2023-04-01T01:43:31;6.40;69.30
67182;DHT22;54114;53.524;49.396;2023-04-01T01:46:06;6.30;69.20
67182;DHT22;54114;53.524;49.396;2023-04-01T01:48:38;6.30;69.20
67182;DHT22;54114;53.524;49.396;2023-04-01T01:51:08;6.30;69.40
67182;DHT22;54114;53.524;49.396;2023-04-01T01:53:38;6.30;69.50
67182;DHT22;54114;53.524;49.396;2023-04-01T01:56:07;6.30;69.20
67182;DHT22;54114;53.524;49.396;2023-04-01T01:58:39;6.30;69.30
67182;DHT22;54114;53.524;49.396;2023-04-01T02:01:14;6.30;69.20
67182;DHT22;54114;53.524;49.396;2023-04-01T02:03:47;6.30;69.30
67182;DHT22;54114;53.524;49.396;2023-04-01T02:06:17;6.30;69.20
67182;DHT22;54114;53.524;49.396;2023-04-01T02:08:47;6.30;69.20
67182;DHT22;54114;53.524;49.396;2023-04-01T02:11:51;6.30;69.30
67182;DHT22;54114;53.524;49.396;2023-04-01T02:14:26;6.20;69.50
67182;DHT22;54114;53.524;49.396;2023-04-01T02:17:14;6.20;69.70
67182;DHT22;54114;53.524;49.396;2023-04-01T02:20:11;6.10;69.90
67182;DHT22;54114;53.524;49.396;2023-04-01T02:22:48;6.10;70.20
67182;DHT22;54114;53.524;49.396;2023-04-01T02:25:43;6.10;70.30
67182;DHT22;54114;53.524;49.396;2023-04-01T02:28:17;6.10;70.40
67182;DHT22;54114;53.524;49.396;2023-04-01T02:30:47;6.10;70.60
67182;DHT22;54114;53.524;49.396;2023-04-01T02:33:17;6.10;70.80
67182;DHT22;54114;53.524;49.396;2023-04-01T02:35:45;6.00;71.00
67182;DHT22;54114;53.524;49.396;2023-04-01T02:38:12;6.00;71.20
67182;DHT22;54114;53.524;49.396;2023-04-01T02:40:49;6.00;71.30
67182;DHT22;54114;53.524;49.396;2023-04-01T02:43:17;6.00;71.40
67182;DHT22;54114;53.524;49.396;2023-04-01T02:45:45;5.90;71.50
67182;DHT22;54114;53.524;49.396;2023-04-01T02:48:14;5.90;71.80
67182;DHT22;54114;53.524;49.396;2023-04-01T02:50:41;5.90;72.00
67182;DHT22;54114;53.524;49.396;2023-04-01T02:53:10;5.90;71.70
67182;DHT22;54114;53.524;49.396;2023-04-01T02:55:37;6.00;71.90
67182;DHT22;54114;53.524;49.396;2023-04-01T02:58:04;6.00;71.70
67182;DHT22;54114;53.524;49.396;2023-04-01T03:00:31;6.00;71.50
67182;DHT22;54114;53.524;49.396;2023-04-01T03:03:00;6.00;71.50
67182;DHT22;54114;53.524;49.396;2023-04-01T03:05:28;6.00;71.40
67182;DHT22;54114;53.524;49.396;2023-04-01T03:07:57;6.10;71.30
67182;DHT22;54114;53.524;49.396;2023-04-01T03:10:23;6.10;71.10
67182;DHT22;54114;53.524;49.396;2023-04-01T03:12:50;6.10;71.00
67182;DHT22;54114;53.524;49.396;2023-04-01T03:15:20;6.10;70.80
67182;DHT22;54114;53.524;49.396;2023-04-01T03:17:49;6.20;70.80
67182;DHT22;54114;53.524;49.396;2023-04-01T03:20:17;6.20;70.90
67182;DHT22;54114;53.524;49.396;2023-04-01T03:22:44;6.30;70.80
67182;DHT22;54114;53.524;49.396;2023-04-01T03:25:11;6.40;70.40
67182;DHT22;54114;53.524;49.396;2023-04-01T03:27:39;6.40;70.00
67182;DHT22;54114;53.524;49.396;2023-04-01T03:30:06;6.50;69.60
67182;DHT22;54114;53.524;49.396;2023-04-01T03:32:36;6.50;69.50
67182;DHT22;54114;53.524;49.396;2023-04-01T03:35:03;6.60;69.30
67182;DHT22;54114;53.524;49.396;2023-04-01T03:37:31;6.60;69.00
67182;DHT22;54114;53.524;49.396;2023-04-01T03:39:57;6.60;68.60
67182;DHT22;54114;53.524;49.396;2023-04-01T03:42:26;6.70;68.50
67182;DHT22;54114;53.524;49.396;2023-04-01T03:44:53;6.80;68.20
67182;DHT22;54114;53.524;49.396;2023-04-01T03:47:20;6.90;67.90
67182;DHT22;54114;53.524;49.396;2023-04-01T03:49:46;7.00;67.80
67182;DHT22;54114;53.524;49.396;2023-04-01T03:52:13;7.10;66.90
67182;DHT22;54114;53.524;49.396;2023-04-01T03:54:42;7.10;66.40
67182;DHT22;54114;53.524;49.396;2023-04-01T03:57:14;7.20;66.00
67182;DHT22;54114;53.524;49.396;2023-04-01T03:59:40;7.30;66.60
67182;DHT22;54114;53.524;49.396;2023-04-01T04:02:07;7.40;65.60
67182;DHT22;54114;53.524;49.396;2023-04-01T04:04:34;7.40;64.90
67182;DHT22;54114;53.524;49.396;2023-04-01T04:07:00;7.60;64.30
67182;DHT22;54114;53.524;49.396;2023-04-01T04:09:32;7.60;64.10
67182;DHT22;54114;53.524;49.396;2023-04-01T04:11:59;7.60;63.70
67182;DHT22;54114;53.524;49.396;2023-04-01T04:14:26;7.70;63.50
67182;DHT22;54114;53.524;49.396;2023-04-01T04:16:56;7.70;63.40
67182;DHT22;54114;53.524;49.396;2023-04-01T04:19:22;7.80;63.40
67182;DHT22;54114;53.524;49.396;2023-04-01T04:21:51;8.00;63.00
67182;DHT22;54114;53.524;49.396;2023-04-01T04:24:20;8.10;62.60
67182;DHT22;54114;53.524;49.396;2023-04-01T04:26:49;8.30;61.70
67182;DHT22;54114;53.524;49.396;2023-04-01T04:29:15;8.40;61.40
67182;DHT22;54114;53.524;49.396;2023-04-01T04:31:42;8.50;60.90
67182;DHT22;54114;53.524;49.396;2023-04-01T04:34:11;8.60;60.50
67182;DHT22;54114;53.524;49.396;2023-04-01T04:36:41;8.70;59.90
67182;DHT22;54114;53.524;49.396;2023-04-01T04:39:09;8.90;59.80
67182;DHT22;54114;53.524;49.396;2023-04-01T04:41:42;9.10;59.30
67182;DHT22;54114;53.524;49.396;2023-04-01T04:44:11;9.20;58.50
67182;DHT22;54114;53.524;49.396;2023-04-01T04:46:44;9.50;58.00
67182;DHT22;54114;53.524;49.396;2023-04-01T04:49:18;9.60;57.10
67182;DHT22;54114;53.524;49.396;2023-04-01T04:51:47;9.90;56.60
67182;DHT22;54114;53.524;49.396;2023-04-01T04:54:18;10.10;55.70
67182;DHT22;54114;53.524;49.396;2023-04-01T04:56:51;10.30;54.60
67182;DHT22;54114;53.524;49.396;2023-04-01T04:59:20;10.60;54.60
67182;DHT22;54114;53.524;49.396;2023-04-01T05:01:51;10.80;52.80
67182;DHT22;54114;53.524;49.396;2023-04-01T05:04:18;10.90;51.70
67182;DHT22;54114;53.524;49.396;2023-04-01T05:06:47;11.10;51.40
67182;DHT22;54114;53.524;49.396;2023-04-01T05:09:14;11.30;50.40
67182;DHT22;54114;53.524;49.396;2023-04-01T05:11:41;11.50;49.60
67182;DHT22;54114;53.524;49.396;2023-04-01T05:14:13;11.60;48.60
67182;DHT22;54114;53.524;49.396;2023-04-01T05:16:41;11.70;48.50
67182;DHT22;54114;53.524;49.396;2023-04-01T05:19:10;11.90;47.60
67182;DHT22;54114;53.524;49.396;2023-04-01T05:21:38;12.00;47.30
67182;DHT22;54114;53.524;49.396;2023-04-01T05:24:10;12.30;46.10
67182;DHT22;54114;53.524;49.396;2023-04-01T05:26:37;12.40;44.20
67182;DHT22;54114;53.524;49.396;2023-04-01T05:29:04;12.50;42.40
67182;DHT22;54114;53.524;49.396;2023-04-01T05:31:33;12.60;42.20
67182;DHT22;54114;53.524;49.396;2023-04-01T05:34:04;12.70;41.00
67182;DHT22;54114;53.524;49.396;2023-04-01T05:36:31;12.80;41.10
67182;DHT22;54114;53.524;49.396;2023-04-01T05:39:03;13.10;40.50
67182;DHT22;54114;53.524;49.396;2023-04-01T05:41:40;13.30;39.40
67182;DHT22;54114;53.524;49.396;2023-04-01T05:44:07;13.40;38.90
67182;DHT22;54114;53.524;49.396;2023-04-01T05:46:41;13.60;38.40
67182;DHT22;54114;53.524;49.396;2023-04-01T05:49:10;13.60;37.90
67182;DHT22;54114;53.524;49.396;2023-04-01T05:51:36;13.80;38.20
67182;DHT22;54114;53.524;49.396;2023-04-01T05:54:06;14.10;37.50
67182;DHT22;54114;53.524;49.396;2023-04-01T05:56:32;14.40;37.40
67182;DHT22;54114;53.524;49.396;2023-04-01T05:59:02;14.70;37.10
67182;DHT22;54114;53.524;49.396;2023-04-01T06:01:29;15.10;35.90
67182;DHT22;54114;53.524;49.396;2023-04-01T06:03:58;15.40;35.60
67182;DHT22;54114;53.524;49.396;2023-04-01T06:06:29;15.50;35.00
67182;DHT22;54114;53.524;49.396;2023-04-01T06:09:07;15.50;34.70
67182;DHT22;54114;53.524;49.396;2023-04-01T06:24:22;16.30;33.90
67182;DHT22;54114;53.524;49.396;2023-04-01T06:27:12;16.40;33.50
67182;DHT22;54114;53.524;49.396;2023-04-01T06:29:58;16.40;33.60
67182;DHT22;54114;53.524;49.396;2023-04-01T06:33:47;16.50;33.60
67182;DHT22;54114;53.524;49.396;2023-04-01T06:56:07;17.50;32.20
67182;DHT22;54114;53.524;49.396;2023-04-01T06:58:48;17.40;31.90
67182;DHT22;54114;53.524;49.396;2023-04-01T07:01:25;17.70;32.00
67182;DHT22;54114;53.524;49.396;2023-04-01T07:04:00;18.00;31.80
67182;DHT22;54114;53.524;49.396;2023-04-01T07:06:39;18.30;31.50
67182;DHT22;54114;53.524;49.396;2023-04-01T07:09:38;18.60;31.00
67182;DHT22;54114;53.524;49.396;2023-04-01T07:15:38;18.60;30.00
67182;DHT22;54114;53.524;49.396;2023-04-01T07:18:09;18.60;30.00
67182;DHT22;54114;53.524;49.396;2023-04-01T07:20:38;18.70;30.30
67182;DHT22;54114;53.524;49.396;2023-04-01T07:23:22;18.70;30.00
67182;DHT22;54114;53.524;49.396;2023-04-01T07:26:00;18.80;29.90
67182;DHT22;54114;53.524;49.396;2023-04-01T07:28:46;18.90;29.70
67182;DHT22;54114;53.524;49.396;2023-04-01T07:31:22;19.00;29.50
67182;DHT22;54114;53.524;49.396;2023-04-01T07:37:28;19.30;29.50
67182;DHT22;54114;53.524;49.396;2023-04-01T07:40:34;19.30;29.50
67182;DHT22;54114;53.524;49.396;2023-04-01T08:07:40;19.70;29.10
67182;DHT22;54114;53.524;49.396;2023-04-01T08:16:16;20.00;28.80
67182;DHT22;54114;53.524;49.396;2023-04-01T08:19:15;20.10;28.60
67182;DHT22;54114;53.524;49.396;2023-04-01T08:21:52;20.10;28.30
67182;DHT22;54114;53.524;49.396;2023-04-01T08:30:29;20.10;28.60
67182;DHT22;54114;53.524;49.396;2023-04-01T08:35:59;20.30;28.00
67182;DHT22;54114;53.524;49.396;2023-04-01T08:38:43;20.30;28.50
67182;DHT22;54114;53.524;49.396;2023-04-01T08:44:48;20.70;28.00
67182;DHT22;54114;53.524;49.396;2023-04-01T08:53:25;20.50;28.40
67182;DHT22;54114;53.524;49.396;2023-04-01T08:56:19;20.50;28.00
67182;DHT22;54114;53.524;49.396;2023-04-01T08:59:08;20.40;28.10
67182;DHT22;54114;53.524;49.396;2023-04-01T09:13:48;20.50;27.40
67182;DHT22;54114;53.524;49.396;2023-04-01T09:19:58;20.50;27.40
67182;DHT22;54114;53.524;49.396;2023-04-01T09:25:46;20.80;27.20
67182;DHT22;54114;53.524;49.396;2023-04-01T09:28:47;21.00;26.90
67182;DHT22;54114;53.524;49.396;2023-04-01T09:34:52;21.20;26.60
67182;DHT22;54114;53.524;49.396;2023-04-01T09:40:33;21.00;26.80
67182;DHT22;54114;53.524;49.396;2023-04-01T09:43:28;20.80;26.70
67182;DHT22;54114;53.524;49.396;2023-04-01T09:49:50;20.60;27.20
67182;DHT22;54114;53.524;49.396;2023-04-01T10:00:55;20.90;26.70
67182;DHT22;54114;53.524;49.396;2023-04-01T10:04:06;21.00;26.90
67182;DHT22;54114;53.524;49.396;2023-04-01T10:19:35;21.30;26.60
67182;DHT22;54114;53.524;49.396;2023-04-01T10:47:02;20.60;27.10
67182;DHT22;54114;53.524;49.396;2023-04-01T10:50:05;20.80;26.90
67182;DHT22;54114;53.524;49.396;2023-04-01T10:52:57;20.80;26.90
67182;DHT22;54114;53.524;49.396;2023-04-01T10:59:09;20.70;26.90
67182;DHT22;54114;53.524;49.396;2023-04-01T11:17:27;21.20;26.70
67182;DHT22;54114;53.524;49.396;2023-04-01T11:23:18;20.80;26.60
67182;DHT22;54114;53.524;49.396;2023-04-01T11:26:04;20.70;26.70
67182;DHT22;54114;53.524;49.396;2023-04-01T11:40:17;20.20;26.70
67182;DHT22;54114;53.524;49.396;2023-04-01T11:43:08;20.20;27.00
67182;DHT22;54114;53.524;49.396;2023-04-01T11:46:15;20.20;27.10
67182;DHT22;54114;53.524;49.396;2023-04-01T11:52:04;20.00;27.40
67182;DHT22;54114;53.524;49.396;2023-04-01T12:06:33;19.40;28.80
67182;DHT22;54114;53.524;49.396;2023-04-01T12:16:08;19.30;28.70
67182;DHT22;54114;53.524;49.396;2023-04-01T12:22:23;18.80;29.10
67182;DHT22;54114;53.524;49.396;2023-04-01T12:24:40;18.60;29.40
67182;DHT22;54114;53.524;49.396;2023-04-01T12:30:57;18.30;29.90
67182;DHT22;54114;53.524;49.396;2023-04-01T12:42:03;17.90;30.50
67182;DHT22;54114;53.524;49.396;2023-04-01T12:53:47;17.80;31.00
67182;DHT22;54114;53.524;49.396;2023-04-01T13:11:18;17.80;30.70
67182;DHT22;54114;53.524;49.396;2023-04-01T13:20:03;17.40;31.10
67182;DHT22;54114;53.524;49.396;2023-04-01T13:23:14;17.20;31.30
67182;DHT22;54114;53.524;49.396;2023-04-01T13:28:47;17.10;31.80
67182;DHT22;54114;53.524;49.396;2023-04-01T13:34:32;16.80;32.00
67182;DHT22;54114;53.524;49.396;2023-04-01T13:37:42;16.70;32.30
67182;DHT22;54114;53.524;49.396;2023-04-01T14:18:02;16.10;33.80
67182;DHT22;54114;53.524;49.396;2023-04-01T14:20:49;16.00;33.80
67182;DHT22;54114;53.524;49.396;2023-04-01T14:23:54;15.90;33.70
67182;DHT22;54114;53.524;49.396;2023-04-01T14:32:57;15.90;34.00
67182;DHT22;54114;53.524;49.396;2023-04-01T14:36:02;15.80;34.00
67182;DHT22;54114;53.524;49.396;2023-04-01T14:50:09;15.30;34.60
67182;DHT22;54114;53.524;49.396;2023-04-01T14:52:52;15.20;34.80
67182;DHT22;54114;53.524;49.396;2023-04-01T14:58:13;15.00;35.10
67182;DHT22;54114;53.524;49.396;2023-04-01T15:00:58;15.00;35.10
67182;DHT22;54114;53.524;49.396;2023-04-01T15:04:24;15.00;35.30
67182;DHT22;54114;53.524;49.396;2023-04-01T15:18:56;14.60;36.00
67182;DHT22;54114;53.524;49.396;2023-04-01T15:21:56;14.50;36.20
67182;DHT22;54114;53.524;49.396;2023-04-01T15:27:54;14.40;36.50
67182;DHT22;54114;53.524;49.396;2023-04-01T15:39:20;14.20;37.00
67182;DHT22;54114;53.524;49.396;2023-04-01T15:42:28;14.10;37.00
67182;DHT22;54114;53.524;49.396;2023-04-01T15:53:28;14.10;37.30
67182;DHT22;54114;53.524;49.396;2023-04-01T15:56:07;14.00;37.30
67182;DHT22;54114;53.524;49.396;2023-04-01T16:07:42;13.90;37.80
67182;DHT22;54114;53.524;49.396;2023-04-01T16:10:33;13.90;37.80
67182;DHT22;54114;53.524;49.396;2023-04-01T16:20:12;13.70;38.10
67182;DHT22;54114;53.524;49.396;2023-04-01T16:25:39;13.80;38.30
67182;DHT22;54114;53.524;49.396;2023-04-01T16:28:29;13.80;38.10
67182;DHT22;54114;53.524;49.396;2023-04-01T16:31:25;13.90;38.10
67182;DHT22;54114;53.524;49.396;2023-04-01T16:34:30;13.90;38.10
67182;DHT22;54114;53.524;49.396;2023-04-01T16:42:34;13.70;38.60
67182;DHT22;54114;53.524;49.396;2023-04-01T16:48:01;13.30;39.20
67182;DHT22;54114;53.524;49.396;2023-04-01T16:50:56;13.20;39.80
67182;DHT22;54114;53.524;49.396;2023-04-01T17:02:16;13.00;40.30
67182;DHT22;54114;53.524;49.396;2023-04-01T17:10:33;12.70;40.50
67182;DHT22;54114;53.524;49.396;2023-04-01T17:16:43;12.60;41.40
67182;DHT22;54114;53.524;49.396;2023-04-01T17:22:49;12.60;42.00
67182;DHT22;54114;53.524;49.396;2023-04-01T17:28:16;12.50;42.30
67182;DHT22;54114;53.524;49.396;2023-04-01T17:34:09;12.60;42.60
67182;DHT22;54114;53.524;49.396;2023-04-01T17:42:42;12.60;42.90
67182;DHT22;54114;53.524;49.396;2023-04-01T17:45:37;12.60;43.20
67182;DHT22;54114;53.524;49.396;2023-04-01T17:51:28;12.60;43.40
67182;DHT22;54114;53.524;49.396;2023-04-01T17:58:15;12.60;43.50
67182;DHT22;54114;53.524;49.396;2023-04-01T18:07:02;12.60;43.50
67182;DHT22;54114;53.524;49.396;2023-04-01T18:16:37;12.70;43.40
67182;DHT22;54114;53.524;49.396;2023-04-01T18:19:08;12.70;43.40
67182;DHT22;54114;53.524;49.396;2023-04-01T18:30:58;12.40;44.00
67182;DHT22;54114;53.524;49.396;2023-04-01T18:36:42;12.30;44.60
67182;DHT22;54114;53.524;49.396;2023-04-01T18:39:41;12.30;44.80
67182;DHT22;54114;53.524;49.396;2023-04-01T18:43:00;12.20;45.20
67182;DHT22;54114;53.524;49.396;2023-04-01T18:46:03;12.20;45.30
67182;DHT22;54114;53.524;49.396;2023-04-01T18:49:27;12.20;45.50
67182;DHT22;54114;53.524;49.396;2023-04-01T18:58:36;12.10;45.90
67182;DHT22;54114;53.524;49.396;2023-04-01T19:02:02;12.10;46.00
67182;DHT22;54114;53.524;49.396;2023-04-01T19:04:47;12.10;46.10
67182;DHT22;54114;53.524;49.396;2023-04-01T19:10:43;12.20;46.20
67182;DHT22;54114;53.524;49.396;2023-04-01T19:19:26;12.30;46.10
67182;DHT22;54114;53.524;49.396;2023-04-01T19:25:32;12.30;46.20
67182;DHT22;54114;53.524;49.396;2023-04-01T19:39:47;12.10;46.70
67182;DHT22;54114;53.524;49.396;2023-04-01T19:45:37;12.10;46.80
67182;DHT22;54114;53.524;49.396;2023-04-01T19:51:37;12.00;47.20
67182;DHT22;54114;53.524;49.396;2023-04-01T19:57:00;11.80;47.50
67182;DHT22;54114;53.524;49.396;2023-04-01T20:02:33;11.70;47.80
67182;DHT22;54114;53.524;49.396;2023-04-01T20:14:57;11.70;47.70
67182;DHT22;54114;53.524;49.396;2023-04-01T20:17:32;11.70;47.60
67182;DHT22;54114;53.524;49.396;2023-04-01T20:28:02;11.70;47.40
67182;DHT22;54114;53.524;49.396;2023-04-01T20:31:12;11.80;47.40
67182;DHT22;54114;53.524;49.396;2023-04-01T20:34:31;11.80;47.20
67182;DHT22;54114;53.524;49.396;2023-04-01T20:40:37;11.80;46.50
67182;DHT22;54114;53.524;49.396;2023-04-01T20:43:44;11.70;46.30
67182;DHT22;54114;53.524;49.396;2023-04-01T20:54:46;11.70;45.70
67182;DHT22;54114;53.524;49.396;2023-04-01T20:57:34;11.70;45.60
67182;DHT22;54114;53.524;49.396;2023-04-01T21:03:23;11.80;45.20
67182;DHT22;54114;53.524;49.396;2023-04-01T21:09:06;11.70;44.70
67182;DHT22;54114;53.524;49.396;2023-04-01T21:20:03;11.60;44.10
67182;DHT22;54114;53.524;49.396;2023-04-01T21:34:57;11.60;43.90
67182;DHT22;54114;53.524;49.396;2023-04-01T21:37:58;11.60;43.90
67182;DHT22;54114;53.524;49.396;2023-04-01T21:52:50;11.60;43.60
67182;DHT22;54114;53.524;49.396;2023-04-01T21:56:22;11.60;43.50
67182;DHT22;54114;53.524;49.396;2023-04-01T22:05:07;11.60;43.70
67182;DHT22;54114;53.524;49.396;2023-04-01T22:07:46;11.60;43.70
67182;DHT22;54114;53.524;49.396;2023-04-01T22:13:23;11.70;43.70
67182;DHT22;54114;53.524;49.396;2023-04-01T22:19:33;11.70;43.40
67182;DHT22;54114;53.524;49.396;2023-04-01T22:24:54;11.90;43.30
67182;DHT22;54114;53.524;49.396;2023-04-01T22:27:43;11.90;43.20
67182;DHT22;54114;53.524;49.396;2023-04-01T22:30:23;11.90;43.20
67182;DHT22;54114;53.524;49.396;2023-04-01T22:33:21;12.00;43.20
67182;DHT22;54114;53.524;49.396;2023-04-01T22:48:48;12.10;43.20
67182;DHT22;54114;53.524;49.396;2023-04-01T22:52:03;12.00;43.10
67182;DHT22;54114;53.524;49.396;2023-04-01T22:54:51;12.00;43.10
67182;DHT22;54114;53.524;49.396;2023-04-01T22:58:03;12.00;43.30
67182;DHT22;54114;53.524;49.396;2023-04-01T23:03:40;12.10;43.30
67182;DHT22;54114;53.524;49.396;2023-04-01T23:06:20;12.10;43.20
67182;DHT22;54114;53.524;49.396;2023-04-01T23:11:57;12.10;43.30
67182;DHT22;54114;53.524;49.396;2023-04-01T23:17:17;12.10;43.30
67182;DHT22;54114;53.524;49.396;2023-04-01T23:23:39;12.10;43.20
67182;DHT22;54114;53.524;49.396;2023-04-01T23:26:38;12.10;43.20
67182;DHT22;54114;53.524;49.396;2023-04-01T23:29:14;12.10;43.30
67182;DHT22;54114;53.524;49.396;2023-04-01T23:31:45;12.10;43.30
67182;DHT22;54114;53.524;49.396;2023-04-01T23:34:26;12.10;43.40
67182;DHT22;54114;53.524;49.396;2023-04-01T23:37:09;12.10;43.40
67182;DHT22;54114;53.524;49.396;2023-04-01T23:39:46;12.00;43.40
67182;DHT22;54114;53.524;49.396;2023-04-01T23:42:32;12.00;43.50
67182;DHT22;54114;53.524;49.396;2023-04-01T23:45:14;11.90;43.60
67182;DHT22;54114;53.524;49.396;2023-04-01T23:47:45;12.00;43.80
67182;DHT22;54114;53.524;49.396;2023-04-01T23:50:21;12.00;43.80
67182;DHT22;54114;53.524;49.396;2023-04-01T23:53:02;11.90;43.80
67182;DHT22;54114;53.524;49.396;2023-04-01T23:55:46;12.00;43.80
